Time;durP1;ratioP1;P1;durP2;ratioP2;P2;SDS_P1;SDS_P2;PMS_P1;PMS_P2;Temp;Humidity;BMP_temperature;BMP_pressure;BME280_temperature;BME280_humidity;BME280_pressure;Samples;Min_cycle;Max_cycle;Signal;HPM_P1;HPM_P2
2022/09/02 00:01:38;;;;;;;3.70;3.40;;;13.60;99.90;;;;;;6350797;22;20904;-93
2022/09/02 00:04:07;;;;;;;3.30;2.97;;;13.70;99.90;;;;;;6350690;22;20421;-93
2022/09/02 00:06:35;;;;;;;3.63;3.33;;;13.60;99.90;;;;;;6352371;22;20421;-93
2022/09/02 00:09:03;;;;;;;3.20;2.93;;;13.60;99.90;;;;;;6352040;22;20417;-92
2022/09/02 00:11:32;;;;;;;3.50;3.30;;;13.60;99.90;;;;;;6353548;22;20440;-92
2022/09/02 00:14:04;;;;;;;4.80;3.40;;;13.50;99.90;;;;;;6353074;22;20486;-93
2022/09/02 00:16:32;;;;;;;4.23;3.83;;;13.50;99.90;;;;;;6359494;22;20417;-93
2022/09/02 00:19:01;;;;;;;5.23;3.90;;;13.50;99.90;;;;;;6356454;22;20421;-94
2022/09/02 00:21:29;;;;;;;3.40;3.10;;;13.50;99.90;;;;;;6357018;22;20423;-93
2022/09/02 00:23:56;;;;;;;4.00;3.60;;;13.40;99.90;;;;;;6357198;22;20421;-93
2022/09/02 00:26:23;;;;;;;4.00;3.43;;;13.40;99.90;;;;;;6357276;22;20421;-93
2022/09/02 00:28:50;;;;;;;6.80;3.97;;;13.40;99.90;;;;;;6355090;22;20911;-93
2022/09/02 00:31:18;;;;;;;3.90;3.53;;;13.40;99.90;;;;;;6353670;22;20447;-93
2022/09/02 00:33:45;;;;;;;3.30;3.00;;;13.30;99.90;;;;;;6354221;22;20428;-91
2022/09/02 00:36:12;;;;;;;3.53;3.23;;;13.30;99.90;;;;;;6354689;22;20421;-92
2022/09/02 00:38:40;;;;;;;3.33;3.03;;;13.20;99.90;;;;;;6353204;22;20420;-93
2022/09/02 00:41:09;;;;;;;3.23;2.93;;;13.20;99.90;;;;;;6353178;22;20959;-93
2022/09/02 00:43:44;;;;;;;3.70;3.40;;;13.20;99.90;;;;;;6352732;22;21083;-93
2022/09/02 00:46:13;;;;;;;3.50;3.20;;;13.10;99.90;;;;;;6353456;22;20902;-93
2022/09/02 00:48:47;;;;;;;4.13;3.73;;;13.10;99.90;;;;;;6352807;22;20428;-93
2022/09/02 00:51:14;;;;;;;3.77;3.47;;;13.10;99.90;;;;;;6352431;22;20440;-93
2022/09/02 00:53:44;;;;;;;3.60;3.30;;;13.10;99.90;;;;;;6352627;22;20425;-93
2022/09/02 00:56:14;;;;;;;4.53;4.13;;;13.10;99.90;;;;;;6353242;22;20416;-93
2022/09/02 00:58:43;;;;;;;3.90;3.50;;;13.10;99.90;;;;;;6354072;22;20424;-92
2022/09/02 01:01:11;;;;;;;3.60;3.30;;;13.10;99.90;;;;;;6353087;22;20995;-93
2022/09/02 01:03:39;;;;;;;4.37;3.70;;;13.00;99.90;;;;;;6353292;22;20968;-93
2022/09/02 01:06:10;;;;;;;3.93;3.37;;;13.00;99.90;;;;;;6353326;22;20485;-93
2022/09/02 01:08:38;;;;;;;4.00;3.63;;;13.00;99.90;;;;;;6352557;22;20417;-93
2022/09/02 01:11:05;;;;;;;3.67;3.37;;;13.00;99.90;;;;;;6352397;22;20441;-93
2022/09/02 01:13:37;;;;;;;3.87;3.50;;;12.90;99.90;;;;;;6352721;22;20451;-93
2022/09/02 01:16:11;;;;;;;3.73;3.20;;;12.90;99.90;;;;;;6353810;22;20416;-93
2022/09/02 01:18:38;;;;;;;3.50;3.10;;;12.90;99.90;;;;;;6354141;22;20412;-93
2022/09/02 01:21:07;;;;;;;3.60;3.30;;;12.90;99.90;;;;;;6353743;22;20917;-94
2022/09/02 01:23:36;;;;;;;4.30;3.30;;;12.90;99.90;;;;;;6352869;22;20921;-93
2022/09/02 01:26:06;;;;;;;4.23;3.77;;;12.80;99.90;;;;;;6353141;22;20432;-93
2022/09/02 01:28:33;;;;;;;3.50;3.23;;;12.80;99.90;;;;;;6353674;22;20519;-92
2022/09/02 01:31:00;;;;;;;3.93;3.00;;;12.70;99.90;;;;;;6354437;22;20468;-93
2022/09/02 01:33:27;;;;;;;3.70;3.40;;;12.70;99.90;;;;;;6354349;22;20424;-93
2022/09/02 01:35:55;;;;;;;3.47;3.17;;;12.70;99.90;;;;;;6354411;22;20489;-93
2022/09/02 01:38:22;;;;;;;3.50;3.20;;;12.70;99.90;;;;;;6353869;22;20424;-92
2022/09/02 01:40:51;;;;;;;3.03;2.80;;;12.70;99.90;;;;;;6357612;22;20428;-94
2022/09/02 01:43:22;;;;;;;3.53;3.23;;;12.70;99.90;;;;;;6355390;22;20473;-92
2022/09/02 01:45:52;;;;;;;3.60;3.30;;;12.60;99.90;;;;;;6353566;22;20424;-93
2022/09/02 01:48:19;;;;;;;3.50;3.20;;;12.60;99.90;;;;;;6353345;22;20435;-92
2022/09/02 01:50:50;;;;;;;4.00;3.70;;;12.60;99.90;;;;;;6353692;22;20448;-93
2022/09/02 01:53:17;;;;;;;3.03;2.73;;;12.60;99.90;;;;;;6353690;22;20422;-93
2022/09/02 01:55:52;;;;;;;4.47;3.50;;;12.60;99.90;;;;;;6353665;22;20443;-93
2022/09/02 01:58:19;;;;;;;4.20;3.77;;;12.60;99.90;;;;;;6353353;22;20418;-93
2022/09/02 02:00:46;;;;;;;6.83;3.57;;;12.50;99.90;;;;;;6354017;22;20443;-92
2022/09/02 02:03:13;;;;;;;3.13;2.87;;;12.50;99.90;;;;;;6354215;22;20498;-92
2022/09/02 02:05:41;;;;;;;3.30;2.87;;;12.40;99.90;;;;;;6355766;22;20412;-92
2022/09/02 02:08:07;;;;;;;3.40;3.10;;;12.50;99.90;;;;;;6356673;22;20754;-92
2022/09/02 02:10:35;;;;;;;3.30;3.00;;;12.40;99.90;;;;;;6356005;22;20532;-93
2022/09/02 02:13:03;;;;;;;3.80;3.27;;;12.40;99.90;;;;;;6354080;22;20448;-92
2022/09/02 02:15:30;;;;;;;3.33;3.00;;;12.40;99.90;;;;;;6353463;22;20425;-93
2022/09/02 02:17:57;;;;;;;3.70;3.40;;;12.40;99.90;;;;;;6354605;22;20420;-92
2022/09/02 02:20:25;;;;;;;2.93;2.73;;;12.40;99.90;;;;;;6356831;22;20448;-93
2022/09/02 02:22:53;;;;;;;3.30;3.00;;;12.40;99.90;;;;;;6356865;22;20413;-92
2022/09/02 02:25:20;;;;;;;3.67;3.30;;;12.40;99.90;;;;;;6355165;22;20423;-93
2022/09/02 02:27:47;;;;;;;3.00;2.70;;;12.40;99.90;;;;;;6358781;22;20475;-92
2022/09/02 02:30:17;;;;;;;3.20;2.80;;;12.30;99.90;;;;;;6365313;22;20436;-93
2022/09/02 02:32:46;;;;;;;3.30;3.10;;;12.30;99.90;;;;;;6358800;22;20493;-93
2022/09/02 02:35:14;;;;;;;3.80;3.27;;;12.30;99.90;;;;;;6372640;22;20446;-95
2022/09/02 02:37:41;;;;;;;3.40;2.73;;;12.30;99.90;;;;;;6359804;22;20416;-93
2022/09/02 02:40:10;;;;;;;3.37;2.80;;;12.30;99.90;;;;;;6355582;22;20480;-93
2022/09/02 02:42:39;;;;;;;3.30;3.00;;;12.20;99.90;;;;;;6355564;22;20758;-93
2022/09/02 02:45:08;;;;;;;3.50;3.15;;;12.20;99.90;;;;;;6355642;22;20424;-93
2022/09/02 02:47:38;;;;;;;4.90;3.20;;;12.20;99.90;;;;;;6356054;22;20200;-93
2022/09/02 02:50:07;;;;;;;2.73;2.50;;;12.20;99.90;;;;;;6356112;22;20437;-93
2022/09/02 02:52:34;;;;;;;3.27;2.97;;;12.10;99.90;;;;;;6356076;22;20444;-93
2022/09/02 02:55:00;;;;;;;2.93;2.57;;;12.10;99.90;;;;;;6356373;22;20444;-94
2022/09/02 02:57:28;;;;;;;3.47;3.17;;;12.10;99.90;;;;;;6357138;22;20668;-93
2022/09/02 02:59:56;;;;;;;2.77;2.57;;;12.10;99.90;;;;;;6357445;22;20561;-93
2022/09/02 03:02:23;;;;;;;2.97;2.60;;;12.10;99.90;;;;;;6364484;22;20416;-93
2022/09/02 03:04:55;;;;;;;4.13;2.97;;;12.00;99.90;;;;;;6364451;22;20417;-93
2022/09/02 03:07:21;;;;;;;2.90;2.70;;;12.00;99.90;;;;;;6364396;22;20438;-92
2022/09/02 03:09:48;;;;;;;3.30;3.10;;;12.00;99.90;;;;;;6363798;22;20447;-92
2022/09/02 03:12:15;;;;;;;3.43;3.13;;;12.00;99.90;;;;;;6359949;22;20437;-94
2022/09/02 03:14:42;;;;;;;2.93;2.63;;;12.00;99.90;;;;;;6355881;22;20426;-93
2022/09/02 03:17:09;;;;;;;3.30;3.07;;;12.00;99.90;;;;;;6356353;22;20421;-92
2022/09/02 03:19:36;;;;;;;2.87;2.67;;;12.00;99.90;;;;;;6356510;22;20437;-93
2022/09/02 03:22:05;;;;;;;3.03;2.80;;;11.90;99.90;;;;;;6355957;22;20420;-92
2022/09/02 03:24:33;;;;;;;4.17;3.67;;;11.90;99.90;;;;;;6355653;22;20908;-94
2022/09/02 03:27:00;;;;;;;3.50;3.20;;;11.90;99.90;;;;;;6352782;22;20933;-93
2022/09/02 03:29:26;;;;;;;3.87;3.07;;;11.90;99.90;;;;;;6350704;22;20445;-91
2022/09/02 03:31:53;;;;;;;3.23;3.00;;;11.90;99.90;;;;;;6356836;22;20436;-94
2022/09/02 03:34:20;;;;;;;3.03;2.83;;;11.90;99.90;;;;;;6359723;22;20423;-93
2022/09/02 03:36:47;;;;;;;2.93;2.73;;;11.80;99.90;;;;;;6359495;22;20417;-94
2022/09/02 03:39:15;;;;;;;2.97;2.77;;;11.80;99.90;;;;;;6360648;22;20705;-94
2022/09/02 03:41:42;;;;;;;3.10;2.80;;;11.80;99.90;;;;;;6356990;22;20409;-93
2022/09/02 03:44:10;;;;;;;2.83;2.55;;;11.80;99.90;;;;;;6353370;22;20420;-93
2022/09/02 03:46:37;;;;;;;3.60;3.30;;;11.80;99.90;;;;;;6355042;22;20173;-93
2022/09/02 03:49:04;;;;;;;3.30;3.00;;;11.70;99.90;;;;;;6362078;22;20432;-94
2022/09/02 03:51:34;;;;;;;3.47;2.73;;;11.70;99.90;;;;;;6369105;22;20450;-92
2022/09/02 03:54:02;;;;;;;8.10;3.10;;;11.70;99.90;;;;;;6371936;22;20518;-95
2022/09/02 03:56:52;;;;;;;5.25;3.05;;;11.70;99.90;;;;;;6374436;22;20501;-94
2022/09/02 03:59:19;;;;;;;3.20;2.87;;;11.70;99.90;;;;;;6318235;22;20672;-92
2022/09/02 04:01:46;;;;;;;2.87;2.43;;;11.60;99.90;;;;;;6354326;22;20896;-93
2022/09/02 04:04:13;;;;;;;2.70;2.50;;;11.60;99.90;;;;;;6355568;22;20771;-93
2022/09/02 04:06:40;;;;;;;3.33;3.03;;;11.60;99.90;;;;;;6355964;22;20419;-92
2022/09/02 04:09:07;;;;;;;3.97;3.30;;;11.60;99.90;;;;;;6356374;22;20910;-93
2022/09/02 04:11:34;;;;;;;3.13;2.60;;;11.50;99.90;;;;;;6365889;22;20984;-92
2022/09/02 04:14:02;;;;;;;3.13;2.70;;;11.60;99.90;;;;;;6359589;22;20181;-92
2022/09/02 04:16:29;;;;;;;3.47;3.17;;;11.50;99.90;;;;;;6351981;22;20424;-91
2022/09/02 04:18:56;;;;;;;3.70;3.40;;;11.50;99.90;;;;;;6360365;22;20751;-91
2022/09/02 04:21:23;;;;;;;3.20;2.90;;;11.50;99.90;;;;;;6358152;22;20419;-92
2022/09/02 04:23:52;;;;;;;3.40;3.10;;;11.50;99.90;;;;;;6359483;22;20170;-92
2022/09/02 04:26:20;;;;;;;2.93;2.63;;;11.50;99.90;;;;;;6354852;22;20170;-91
2022/09/02 04:28:47;;;;;;;3.40;3.10;;;11.50;99.90;;;;;;6351961;22;20424;-91
2022/09/02 04:31:18;;;;;;;3.03;2.75;;;11.50;99.90;;;;;;6343045;22;20502;-92
2022/09/02 04:33:45;;;;;;;3.08;2.67;;;11.50;99.90;;;;;;6351758;22;20185;-93
2022/09/02 04:36:15;;;;;;;3.05;2.70;;;11.40;99.90;;;;;;6362218;22;20173;-92
2022/09/02 04:38:42;;;;;;;2.78;2.35;;;11.40;99.90;;;;;;6351637;22;20170;-92
2022/09/02 04:41:10;;;;;;;3.10;2.90;;;11.40;99.90;;;;;;6352539;22;20202;-92
2022/09/02 04:43:37;;;;;;;3.47;3.17;;;11.40;99.90;;;;;;6353497;22;20170;-91
2022/09/02 04:46:05;;;;;;;3.35;2.83;;;11.40;99.90;;;;;;6352502;22;20910;-93
2022/09/02 04:48:35;;;;;;;2.83;2.63;;;11.40;99.90;;;;;;6352399;22;20181;-91
2022/09/02 04:51:05;;;;;;;2.85;2.60;;;11.40;99.90;;;;;;6353105;22;20219;-92
2022/09/02 04:53:32;;;;;;;3.00;2.80;;;11.40;99.90;;;;;;6342757;22;20194;-91
2022/09/02 04:55:58;;;;;;;2.78;2.55;;;11.40;99.90;;;;;;6353506;22;20180;-91
2022/09/02 04:58:26;;;;;;;2.97;2.75;;;11.40;99.90;;;;;;6353583;22;20169;-92
2022/09/02 05:00:53;;;;;;;8.65;3.15;;;11.40;99.90;;;;;;6343951;22;20198;-92
2022/09/02 05:03:20;;;;;;;2.85;2.65;;;11.40;99.90;;;;;;6354124;22;20198;-92
2022/09/02 05:05:48;;;;;;;2.80;2.57;;;11.30;99.90;;;;;;6354903;22;20174;-91
2022/09/02 05:08:21;;;;;;;3.20;2.60;;;11.40;99.90;;;;;;6353849;22;20427;-91
2022/09/02 05:10:49;;;;;;;2.75;2.55;;;11.40;99.90;;;;;;6353555;22;20518;-92
2022/09/02 05:13:16;;;;;;;3.58;3.00;;;11.40;99.90;;;;;;6352664;22;20266;-91
2022/09/02 05:15:43;;;;;;;3.05;2.85;;;11.40;99.90;;;;;;6343160;22;20557;-91
2022/09/02 05:18:11;;;;;;;2.75;2.03;;;11.40;99.90;;;;;;6354273;22;20175;-91
2022/09/02 05:20:38;;;;;;;3.47;3.17;;;11.40;99.90;;;;;;6353963;22;20194;-92
2022/09/02 05:23:06;;;;;;;3.63;2.63;;;11.40;99.90;;;;;;6352025;22;20166;-92
2022/09/02 05:28:59;;;;;;;3.25;2.95;;;11.40;99.90;;;;;;6344613;22;20967;-92
2022/09/02 05:31:27;;;;;;;3.13;2.88;;;11.40;99.90;;;;;;6351579;22;20261;-92
2022/09/02 05:33:54;;;;;;;3.60;3.30;;;11.50;99.90;;;;;;6354285;22;20211;-91
2022/09/02 05:36:22;;;;;;;3.22;2.92;;;11.50;99.90;;;;;;6344230;22;20171;-92
2022/09/02 05:38:51;;;;;;;3.20;3.00;;;11.50;99.90;;;;;;6353852;22;20174;-92
2022/09/02 05:41:22;;;;;;;4.20;2.92;;;11.60;99.90;;;;;;6343892;22;20455;-92
2022/09/02 05:43:52;;;;;;;3.63;3.28;;;11.60;99.90;;;;;;6351722;22;20189;-92
2022/09/02 05:46:22;;;;;;;3.35;3.05;;;11.70;99.90;;;;;;6351227;22;20180;-92
2022/09/02 05:49:06;;;;;;;3.33;3.00;;;11.70;99.90;;;;;;6352100;22;20173;-92
2022/09/02 05:51:39;;;;;;;2.93;2.73;;;11.80;99.90;;;;;;6350622;22;20479;-95
2022/09/02 05:54:09;;;;;;;3.90;3.30;;;11.80;99.90;;;;;;6376006;22;20432;-93
2022/09/02 05:56:38;;;;;;;3.07;2.77;;;11.90;99.90;;;;;;6375596;22;20416;-93
2022/09/02 05:59:09;;;;;;;3.87;3.47;;;11.90;99.90;;;;;;6376239;22;20476;-95
2022/09/02 06:01:36;;;;;;;3.70;3.30;;;12.00;99.90;;;;;;6375295;22;20436;-94
2022/09/02 06:04:05;;;;;;;2.83;2.63;;;12.00;99.90;;;;;;6374924;22;20404;-94
2022/09/02 06:06:34;;;;;;;2.97;2.70;;;12.10;99.90;;;;;;6365411;22;20411;-94
2022/09/02 06:09:04;;;;;;;3.03;2.80;;;12.20;99.90;;;;;;6375264;22;20484;-95
2022/09/02 06:11:32;;;;;;;4.00;3.10;;;12.30;99.90;;;;;;6375967;22;20446;-96
2022/09/02 06:13:59;;;;;;;3.00;2.80;;;12.40;99.90;;;;;;6365229;22;20440;-96
2022/09/02 06:16:26;;;;;;;3.20;3.00;;;12.40;99.90;;;;;;6376426;22;20393;-93
2022/09/02 06:18:53;;;;;;;4.10;3.30;;;12.70;99.90;;;;;;6365778;22;20420;-96
2022/09/02 06:21:20;;;;;;;2.83;2.63;;;13.00;99.90;;;;;;6376041;22;20435;-93
2022/09/02 06:23:48;;;;;;;4.30;3.40;;;13.10;99.90;;;;;;6376479;22;20397;-94
2022/09/02 06:26:16;;;;;;;3.30;3.00;;;13.40;99.90;;;;;;6376934;22;20171;-94
2022/09/02 06:28:45;;;;;;;3.70;3.40;;;13.60;99.90;;;;;;6377321;22;20517;-94
2022/09/02 06:31:13;;;;;;;3.20;3.00;;;13.70;99.90;;;;;;6377236;22;20429;-96
2022/09/02 06:33:41;;;;;;;3.50;2.90;;;13.80;99.90;;;;;;6377232;22;20449;-95
2022/09/02 06:36:09;;;;;;;3.43;3.13;;;14.00;99.90;;;;;;6367026;22;20401;-95
2022/09/02 06:38:37;;;;;;;3.23;3.00;;;14.00;99.90;;;;;;6366863;22;20425;-96
2022/09/02 06:41:04;;;;;;;4.30;3.50;;;14.20;99.90;;;;;;6377290;22;20457;-96
2022/09/02 06:43:31;;;;;;;4.13;2.87;;;14.20;99.90;;;;;;6376625;22;20400;-94
2022/09/02 06:45:59;;;;;;;2.97;2.70;;;14.30;99.90;;;;;;6366994;22;20428;-94
2022/09/02 06:48:26;;;;;;;3.23;2.97;;;14.40;99.90;;;;;;6377459;22;20424;-95
2022/09/02 06:50:54;;;;;;;9.87;3.53;;;14.50;99.90;;;;;;6366709;22;20402;-95
2022/09/02 06:53:21;;;;;;;2.67;2.47;;;14.50;99.90;;;;;;6376592;22;20453;-92
2022/09/02 06:55:48;;;;;;;2.50;2.30;;;14.60;99.90;;;;;;6376839;22;20689;-95
2022/09/02 06:58:15;;;;;;;3.50;3.17;;;14.60;99.90;;;;;;6376855;22;20433;-96
2022/09/02 07:00:43;;;;;;;2.90;2.70;;;14.70;99.90;;;;;;6377559;22;20481;-95
2022/09/02 07:06:16;;;;;;;3.40;2.50;;;14.90;99.90;;;;;;6231698;22;20472;-95
2022/09/02 07:08:44;;;;;;;4.03;3.17;;;15.00;99.90;;;;;;6354314;22;20421;-94
2022/09/02 07:14:13;;;;;;;3.20;2.87;;;15.10;99.90;;;;;;6297631;22;20506;-94
2022/09/02 07:16:45;;;;;;;2.67;2.47;;;15.30;99.90;;;;;;6350192;22;20478;-93
2022/09/02 07:19:17;;;;;;;2.60;2.33;;;15.30;99.90;;;;;;6351592;22;20421;-94
2022/09/02 07:21:44;;;;;;;2.97;2.77;;;15.40;99.90;;;;;;6351169;22;20494;-93
2022/09/02 07:24:16;;;;;;;3.00;2.10;;;15.60;99.90;;;;;;6350227;22;20503;-94
2022/09/02 07:26:44;;;;;;;2.60;2.30;;;15.70;99.90;;;;;;6362681;22;20662;-92
2022/09/02 07:29:11;;;;;;;2.40;2.20;;;15.80;99.90;;;;;;6349719;22;20478;-92
2022/09/02 07:31:41;;;;;;;2.53;2.17;;;15.90;99.90;;;;;;6350950;22;20802;-92
2022/09/02 07:34:08;;;;;;;2.73;2.53;;;16.00;99.90;;;;;;6340385;22;20739;-91
2022/09/02 07:36:37;;;;;;;3.20;2.53;;;16.10;99.90;;;;;;6351403;22;20453;-92
2022/09/02 07:39:05;;;;;;;2.93;2.47;;;16.30;99.90;;;;;;6352194;22;20475;-92
2022/09/02 07:41:32;;;;;;;2.93;2.50;;;16.40;99.90;;;;;;6351532;22;20441;-92
2022/09/02 07:43:59;;;;;;;2.50;2.30;;;16.50;99.90;;;;;;6352556;22;20470;-92
2022/09/02 07:53:21;;;;;;;2.33;2.13;;;16.80;99.90;;;;;;6247404;23;20456;-92
2022/09/02 07:55:48;;;;;;;3.10;2.80;;;17.00;99.90;;;;;;6330130;22;20851;-92
2022/09/02 07:58:16;;;;;;;2.33;2.13;;;17.10;99.90;;;;;;6364683;22;20401;-94
2022/09/02 08:03:35;;;;;;;4.30;2.43;;;17.30;99.90;;;;;;6338283;22;20974;-91
2022/09/02 08:06:02;;;;;;;1.90;1.80;;;17.40;99.90;;;;;;6346549;22;20784;-93
2022/09/02 08:08:31;;;;;;;3.13;2.20;;;17.40;99.90;;;;;;6364489;22;20416;-93
2022/09/02 08:10:59;;;;;;;2.13;1.93;;;17.50;99.90;;;;;;6360273;22;20469;-91
2022/09/02 08:13:26;;;;;;;2.27;2.07;;;17.60;99.90;;;;;;6357840;22;20949;-92
2022/09/02 08:42:38;;;;;;;2.30;2.10;;;18.70;99.90;;;;;;6334545;22;20440;-91
2022/09/02 08:45:11;;;;;;;1.83;1.73;;;18.80;99.90;;;;;;6340461;22;20393;-92
2022/09/02 08:47:42;;;;;;;1.87;1.77;;;18.90;99.90;;;;;;6340660;22;20397;-90
2022/09/02 08:50:13;;;;;;;2.30;2.10;;;19.00;99.90;;;;;;6353206;22;20437;-94
2022/09/02 08:52:45;;;;;;;2.20;2.00;;;19.00;99.90;;;;;;6348938;22;20632;-93
2022/09/02 08:55:18;;;;;;;2.20;2.00;;;19.10;99.90;;;;;;6339550;22;20405;-92
2022/09/02 08:57:48;;;;;;;1.83;1.73;;;19.10;99.90;;;;;;6350365;22;20413;-92
2022/09/02 09:00:16;;;;;;;2.23;2.03;;;19.20;99.90;;;;;;6340964;22;20432;-93
2022/09/02 09:02:55;;;;;;;1.83;1.70;;;19.40;99.90;;;;;;6352913;22;20440;-91
2022/09/02 09:11:02;;;;;;;1.57;1.40;;;19.90;99.90;;;;;;6360956;22;20478;-93
2022/09/02 09:14:02;;;;;;;1.83;1.70;;;20.00;99.90;;;;;;6376330;22;20441;-91
2022/09/02 09:16:39;;;;;;;1.97;1.80;;;20.20;99.90;;;;;;6376078;22;20484;-94
2022/09/02 09:19:14;;;;;;;1.70;1.60;;;20.30;99.90;;;;;;6375393;22;20389;-93
2022/09/02 09:21:49;;;;;;;2.43;1.77;;;20.30;99.90;;;;;;6375381;22;20433;-93
2022/09/02 09:24:26;;;;;;;2.10;1.90;;;20.40;99.90;;;;;;6376294;22;20420;-93
2022/09/02 09:26:54;;;;;;;1.93;1.73;;;20.50;99.90;;;;;;6376230;22;20714;-93
2022/09/02 09:29:25;;;;;;;1.43;1.33;;;20.50;99.90;;;;;;6376305;22;20422;-93
2022/09/02 09:31:57;;;;;;;1.97;1.70;;;20.70;99.90;;;;;;6376474;22;20459;-94
2022/09/02 09:34:24;;;;;;;1.43;1.33;;;20.70;99.90;;;;;;6373874;22;20437;-94
2022/09/02 09:36:54;;;;;;;2.27;1.87;;;20.80;99.90;;;;;;6374737;22;20472;-93
2022/09/02 09:39:25;;;;;;;2.10;1.73;;;20.90;99.90;;;;;;6374423;22;20481;-92
2022/09/02 09:41:54;;;;;;;1.73;1.60;;;21.00;99.90;;;;;;6374650;22;20508;-92
2022/09/02 09:44:43;;;;;;;1.50;1.40;;;21.10;99.90;;;;;;6373909;22;20419;-92
2022/09/02 09:47:14;;;;;;;2.40;2.20;;;21.20;99.90;;;;;;6375423;22;20445;-93
2022/09/02 09:49:41;;;;;;;1.70;1.43;;;21.30;99.90;;;;;;6376725;22;20417;-93
2022/09/02 09:52:08;;;;;;;2.70;1.73;;;21.40;99.90;;;;;;6362922;22;20437;-93
2022/09/02 09:54:35;;;;;;;1.67;1.50;;;21.50;99.90;;;;;;6373410;22;20464;-94
2022/09/02 09:57:27;;;;;;;3.63;1.63;;;21.60;99.90;;;;;;6375973;22;20447;-92
2022/09/02 09:59:56;;;;;;;2.70;1.60;;;21.70;99.90;;;;;;6372539;22;20408;-94
2022/09/02 10:02:26;;;;;;;1.70;1.60;;;21.80;99.90;;;;;;6373763;22;20435;-93
2022/09/02 10:04:57;;;;;;;1.60;1.43;;;21.90;99.90;;;;;;6373709;22;20437;-94
2022/09/02 10:07:39;;;;;;;1.60;1.47;;;22.10;99.90;;;;;;6372166;22;20444;-93
2022/09/02 10:10:22;;;;;;;1.57;1.40;;;22.20;99.90;;;;;;6370370;22;20437;-95
2022/09/02 10:12:56;;;;;;;1.87;1.50;;;22.20;99.90;;;;;;6373399;22;20437;-93
2022/09/02 10:15:44;;;;;;;1.50;1.40;;;22.30;99.90;;;;;;6371164;22;20488;-92
2022/09/02 10:18:23;;;;;;;2.03;1.40;;;22.40;99.90;;;;;;6372659;22;20375;-92
2022/09/02 10:21:00;;;;;;;1.37;1.27;;;22.40;99.90;;;;;;6358828;22;20493;-93
2022/09/02 10:23:36;;;;;;;2.43;1.60;;;22.50;99.90;;;;;;6358492;22;20433;-92
2022/09/02 10:26:17;;;;;;;1.30;1.20;;;22.60;99.90;;;;;;6370548;22;20416;-92
2022/09/02 10:29:09;;;;;;;1.40;1.20;;;22.70;99.90;;;;;;6372573;22;20410;-93
2022/09/02 10:31:50;;;;;;;1.73;1.30;;;22.70;99.90;;;;;;6370935;22;20471;-93
2022/09/02 10:34:30;;;;;;;1.50;1.40;;;22.70;99.50;;;;;;6371731;22;20434;-93
2022/09/02 10:37:17;;;;;;;1.70;1.60;;;22.70;99.90;;;;;;6374270;22;20397;-93
2022/09/02 10:40:10;;;;;;;1.67;1.57;;;23.00;99.90;;;;;;6371689;22;20411;-94
2022/09/02 10:42:46;;;;;;;1.50;1.40;;;23.00;99.70;;;;;;6373504;22;20465;-93
2022/09/02 10:45:17;;;;;;;1.60;1.50;;;23.00;99.40;;;;;;6372452;22;20402;-92
2022/09/02 10:47:53;;;;;;;1.40;1.30;;;23.10;99.50;;;;;;6372870;22;20413;-93
2022/09/02 11:02:59;;;;;;;3.20;1.40;;;23.50;99.60;;;;;;6326546;22;20440;-93
2022/09/02 11:13:18;;;;;;;1.50;1.40;;;23.70;98.70;;;;;;6302102;22;20479;-91
2022/09/02 11:16:16;;;;;;;1.50;1.40;;;23.90;98.80;;;;;;6307579;22;20476;-92
2022/09/02 11:19:31;;;;;;;1.80;1.70;;;24.00;98.60;;;;;;6343040;22;20403;-91
2022/09/02 11:48:07;;;;;;;1.77;1.40;;;24.30;96.20;;;;;;6318260;22;20786;-91
2022/09/02 11:50:52;;;;;;;1.40;1.30;;;24.20;94.30;;;;;;6237242;22;20422;-91
2022/09/02 11:53:24;;;;;;;1.47;1.37;;;24.00;95.50;;;;;;6351192;22;20443;-91
2022/09/02 11:55:55;;;;;;;1.30;1.20;;;24.10;95.80;;;;;;6351462;22;20416;-90
2022/09/02 11:58:35;;;;;;;1.83;1.70;;;24.20;95.60;;;;;;6362057;22;20454;-90
2022/09/02 12:01:27;;;;;;;1.47;1.37;;;24.30;95.70;;;;;;6359963;22;20423;-91
2022/09/02 12:04:18;;;;;;;1.97;1.47;;;24.20;95.60;;;;;;6349773;22;20423;-90
2022/09/02 12:07:18;;;;;;;1.30;1.20;;;24.20;95.50;;;;;;6350985;22;20423;-90
2022/09/02 12:09:47;;;;;;;1.60;1.40;;;24.30;95.70;;;;;;6350545;22;20404;-91
2022/09/02 12:12:47;;;;;;;1.40;1.30;;;24.50;97.10;;;;;;6350369;22;20446;-92
2022/09/02 12:15:16;;;;;;;1.43;1.33;;;24.70;97.30;;;;;;6324697;22;20489;-92
2022/09/02 12:20:57;;;;;;;1.57;1.40;;;25.00;96.70;;;;;;6365249;22;20459;-92
2022/09/02 12:24:01;;;;;;;2.20;1.57;;;25.00;96.50;;;;;;6337217;22;20419;-92
2022/09/02 12:31:56;;;;;;;1.93;1.73;;;24.90;96.60;;;;;;6366303;22;20424;-94
2022/09/02 12:34:55;;;;;;;2.37;1.63;;;24.90;94.80;;;;;;6375975;22;20527;-91
2022/09/02 12:37:50;;;;;;;3.40;1.40;;;24.90;96.90;;;;;;6376489;22;20430;-93
2022/09/02 12:40:25;;;;;;;1.70;1.50;;;24.90;94.10;;;;;;6335401;22;20381;-93
2022/09/02 12:46:33;;;;;;;1.50;1.40;;;24.90;96.80;;;;;;6353657;22;20429;-93
2022/09/02 12:49:10;;;;;;;1.83;1.73;;;25.00;96.10;;;;;;6377789;22;20703;-94
2022/09/02 12:51:56;;;;;;;1.50;1.40;;;25.20;96.00;;;;;;6377980;22;20406;-92
2022/09/02 12:54:35;;;;;;;2.10;1.70;;;25.30;95.40;;;;;;6377308;22;20421;-92
2022/09/02 12:57:03;;;;;;;1.70;1.60;;;25.40;94.20;;;;;;6377623;22;20404;-93
2022/09/02 12:59:32;;;;;;;1.67;1.57;;;25.40;95.90;;;;;;6377542;22;20424;-93
2022/09/02 13:02:18;;;;;;;1.50;1.37;;;25.30;95.10;;;;;;6377523;22;20419;-93
2022/09/02 13:05:05;;;;;;;1.80;1.70;;;25.20;95.00;;;;;;6370010;22;20453;-92
2022/09/02 13:08:04;;;;;;;1.63;1.53;;;25.30;96.40;;;;;;6361589;22;20425;-93
2022/09/02 13:11:04;;;;;;;1.83;1.73;;;25.50;96.50;;;;;;6365038;22;20591;-93
2022/09/02 13:14:06;;;;;;;1.97;1.70;;;25.60;96.40;;;;;;6332493;22;20422;-93
2022/09/02 13:16:42;;;;;;;1.60;1.37;;;25.60;95.80;;;;;;6361339;22;20511;-93
2022/09/02 13:19:44;;;;;;;1.70;1.60;;;25.60;95.80;;;;;;6369646;22;20448;-92
2022/09/02 13:22:33;;;;;;;2.43;1.47;;;25.70;96.70;;;;;;6357637;22;20451;-93
2022/09/02 13:25:27;;;;;;;1.63;1.53;;;25.60;96.30;;;;;;6368803;22;20437;-92
2022/09/02 13:28:09;;;;;;;1.67;1.57;;;25.60;95.40;;;;;;6349532;22;20467;-93
2022/09/02 13:30:54;;;;;;;3.20;1.87;;;25.60;95.50;;;;;;6364690;22;20452;-92
2022/09/02 13:33:21;;;;;;;1.90;1.80;;;25.70;95.30;;;;;;6353267;22;20415;-92
2022/09/02 13:35:54;;;;;;;1.53;1.43;;;25.70;96.00;;;;;;6368800;22;20441;-93
2022/09/02 13:38:24;;;;;;;1.63;1.53;;;25.60;95.60;;;;;;6365698;22;20447;-92
2022/09/02 13:41:06;;;;;;;1.60;1.50;;;25.60;96.50;;;;;;6357491;22;20417;-93
2022/09/02 13:43:33;;;;;;;2.30;1.73;;;25.60;96.40;;;;;;6364605;22;20498;-92
2022/09/02 13:46:01;;;;;;;2.30;2.10;;;25.50;95.90;;;;;;6364573;22;20828;-94
2022/09/02 13:48:31;;;;;;;2.33;1.90;;;25.40;95.90;;;;;;6373761;22;20417;-92
2022/09/02 13:53:59;;;;;;;1.63;1.53;;;25.50;96.20;;;;;;6267614;22;20482;-96
2022/09/02 13:56:30;;;;;;;2.13;1.80;;;25.60;93.90;;;;;;6377352;22;20397;-93
2022/09/02 13:59:09;;;;;;;1.70;1.60;;;25.40;94.40;;;;;;6376339;22;20421;-95
2022/09/02 14:01:42;;;;;;;2.07;1.70;;;25.30;95.40;;;;;;6377445;22;20402;-94
2022/09/02 14:14:32;;;;;;;1.80;1.70;;;25.40;94.70;;;;;;6338652;22;20432;-91
2022/09/02 14:17:17;;;;;;;1.83;1.63;;;25.30;96.00;;;;;;6376732;22;20417;-92
2022/09/02 14:23:19;;;;;;;2.10;1.57;;;25.20;95.80;;;;;;6336583;22;20397;-93
2022/09/02 14:25:51;;;;;;;1.50;1.40;;;25.10;96.00;;;;;;6376723;22;20428;-93
2022/09/02 14:28:23;;;;;;;1.63;1.53;;;25.20;96.60;;;;;;6377010;22;20446;-93
2022/09/02 14:31:06;;;;;;;2.10;1.90;;;25.30;95.30;;;;;;6376614;22;20416;-93
2022/09/02 18:54:59;;;;;;;1.40;1.30;;;19.30;99.90;;;;;;6312645;22;20535;-94
2022/09/02 22:40:20;;;;;;;2.30;2.10;;;15.60;99.90;;;;;;6354767;22;20492;-95
2022/09/02 23:38:29;;;;;;;1.80;1.70;;;15.30;99.90;;;;;;6313522;22;20765;-94
2022/09/02 23:41:05;;;;;;;2.00;1.80;;;15.30;99.90;;;;;;6288441;22;20424;-94
2022/09/02 23:43:34;;;;;;;2.60;2.40;;;15.30;99.90;;;;;;6358447;22;20417;-94
2022/09/02 23:46:10;;;;;;;2.13;1.93;;;15.30;99.90;;;;;;6359549;22;20409;-94
2022/09/02 23:48:42;;;;;;;1.83;1.70;;;15.30;99.90;;;;;;6359178;22;20408;-94
2022/09/02 23:51:17;;;;;;;2.33;2.10;;;15.30;99.90;;;;;;6352469;22;20407;-93
2022/09/02 23:53:57;;;;;;;2.17;1.97;;;15.30;99.90;;;;;;6351928;22;20401;-94
2022/09/02 23:56:39;;;;;;;3.47;2.33;;;15.30;99.90;;;;;;6349943;22;20452;-93
2022/09/02 23:59:21;;;;;;;2.17;1.97;;;15.40;99.90;;;;;;6349534;22;20405;-93
